^^
Station Historical Data
 
Daily Summary for July 29, 2015 Units:  English    Metric   Both
« Previous Day
Next Day »
Daily Weekly Monthly Yearly Custom
  Current: High: Low: Average:
Temperature: 86.3 °F 86.3 °F 66.3 °F 72.9 °F
Dew Point: 76.6 °F 77.4 °F 65.7 °F 70.4 °F
Humidity: 73% 100% 73% 93%
Wind Speed: 2.3mph 6.9mph 0.0mph 3.2mph
Wind Gust: 2.3mph 6.9mph - -
WindSSW - - SSE
Pressure: 29.93 in 29.94 in 29.90 in -
Precipitation: 0.00 in      
Historical Graphs
 
 
Tabular Data for July 29, 2015
Time Temperature Dew Point Pressure Wind Wind Speed Wind Gust Humidity Rainfall Rate (Hourly)
00:02 72.5 °F 70.7 °F 29.93 in Calm     94% 0.00 in
00:07 72.3 °F 70.5 °F 29.93 in Calm     94% 0.00 in
00:12 72.2 °F 70.4 °F 29.93 in Calm     94% 0.00 in
00:17 72.1 °F 70.3 °F 29.93 in Calm     94% 0.00 in
00:22 71.9 °F 70.1 °F 29.93 in Calm     94% 0.00 in
00:27 71.9 °F 70.4 °F 29.93 in Calm     95% 0.00 in
00:32 71.8 °F 70.3 °F 29.93 in Calm     95% 0.00 in
00:37 71.7 °F 70.2 °F 29.93 in Calm     95% 0.00 in
00:42 71.6 °F 70.1 °F 29.93 in Calm     95% 0.00 in
00:47 71.5 °F 70.0 °F 29.93 in Calm     95% 0.00 in
00:52 71.4 °F 69.9 °F 29.93 in Calm     95% 0.00 in
00:57 71.3 °F 69.8 °F 29.93 in Calm     95% 0.00 in
01:02 71.3 °F 69.8 °F 29.93 in Calm     95% 0.00 in
01:07 71.2 °F 69.7 °F 29.93 in Calm     95% 0.00 in
01:12 71.1 °F 69.6 °F 29.93 in Calm     95% 0.00 in
01:17 71.0 °F 69.8 °F 29.93 in Calm     96% 0.00 in
01:22 70.9 °F 69.7 °F 29.93 in Calm     96% 0.00 in
01:27 70.8 °F 69.6 °F 29.94 in Calm     96% 0.00 in
01:32 70.7 °F 69.5 °F 29.93 in Calm     96% 0.00 in
01:37 70.7 °F 69.5 °F 29.93 in NE 1.2 mph 1.2 mph 96% 0.00 in
01:42 70.6 °F 69.4 °F 29.93 in Calm     96% 0.00 in
01:52 70.4 °F 69.2 °F 29.93 in Calm     96% 0.00 in
01:57 70.3 °F 69.1 °F 29.93 in Calm     96% 0.00 in
02:02 70.2 °F 69.0 °F 29.93 in Calm     96% 0.00 in
02:12 70.1 °F 68.9 °F 29.93 in Calm     96% 0.00 in
02:17 70.0 °F 69.1 °F 29.93 in Calm     97% 0.00 in
02:22 69.9 °F 69.0 °F 29.93 in Calm     97% 0.00 in
02:27 69.9 °F 69.0 °F 29.93 in Calm     97% 0.00 in
02:32 69.9 °F 69.0 °F 29.93 in Calm     97% 0.00 in
02:37 69.8 °F 68.9 °F 29.93 in Calm     97% 0.00 in
02:47 69.6 °F 68.7 °F 29.92 in Calm     97% 0.00 in
02:52 69.6 °F 68.7 °F 29.92 in Calm     97% 0.00 in
03:02 69.4 °F 68.5 °F 29.91 in Calm     97% 0.00 in
03:07 69.4 °F 68.5 °F 29.91 in Calm     97% 0.00 in
03:12 69.3 °F 68.4 °F 29.91 in Calm     97% 0.00 in
03:17 69.2 °F 68.3 °F 29.91 in Calm     97% 0.00 in
03:22 69.0 °F 68.1 °F 29.91 in Calm     97% 0.00 in
03:27 68.9 °F 68.0 °F 29.90 in Calm     97% 0.00 in
03:32 68.7 °F 67.8 °F 29.90 in Calm     97% 0.00 in
03:37 68.5 °F 67.6 °F 29.90 in Calm     97% 0.00 in
03:42 68.4 °F 67.5 °F 29.90 in Calm     97% 0.00 in
03:47 68.3 °F 67.4 °F 29.90 in Calm     97% 0.00 in
03:52 68.2 °F 67.3 °F 29.90 in Calm     97% 0.00 in
03:57 68.2 °F 67.6 °F 29.90 in Calm     98% 0.00 in
04:02 68.1 °F 67.5 °F 29.90 in Calm     98% 0.00 in
04:07 68.1 °F 67.5 °F 29.90 in Calm     98% 0.00 in
04:12 68.1 °F 67.5 °F 29.90 in Calm     98% 0.00 in
04:17 68.0 °F 67.4 °F 29.91 in Calm     98% 0.00 in
04:22 67.9 °F 67.3 °F 29.91 in Calm     98% 0.00 in
04:27 67.7 °F 67.1 °F 29.91 in Calm     98% 0.00 in
04:32 67.7 °F 67.1 °F 29.91 in Calm     98% 0.00 in
04:37 67.7 °F 67.1 °F 29.91 in Calm     98% 0.00 in
04:42 67.5 °F 66.9 °F 29.91 in Calm     98% 0.00 in
04:47 67.4 °F 66.8 °F 29.92 in Calm     98% 0.00 in
04:52 67.3 °F 66.7 °F 29.92 in Calm     98% 0.00 in
04:57 67.3 °F 66.7 °F 29.91 in Calm     98% 0.00 in
05:02 67.4 °F 66.8 °F 29.91 in Calm     98% 0.00 in
05:07 67.4 °F 66.8 °F 29.91 in Calm     98% 0.00 in
05:12 67.3 °F 66.7 °F 29.91 in Calm     98% 0.00 in
05:17 67.2 °F 66.6 °F 29.92 in Calm     98% 0.00 in
05:22 67.2 °F 66.6 °F 29.91 in NE 1.2 mph   98% 0.00 in
05:27 67.1 °F 66.5 °F 29.91 in Calm     98% 0.00 in
05:32 67.0 °F 66.4 °F 29.91 in Calm     98% 0.00 in
05:37 66.9 °F 66.3 °F 29.91 in Calm     98% 0.00 in
05:42 66.8 °F 66.2 °F 29.91 in Calm     98% 0.00 in
05:47 66.6 °F 66.0 °F 29.91 in Calm     98% 0.00 in
05:52 66.6 °F 66.0 °F 29.91 in Calm     98% 0.00 in
05:57 66.5 °F 65.9 °F 29.91 in Calm     98% 0.00 in
06:02 66.4 °F 65.8 °F 29.91 in Calm     98% 0.00 in
06:12 66.3 °F 65.7 °F 29.91 in Calm     98% 0.00 in
06:17 66.3 °F 65.7 °F 29.91 in Calm     98% 0.00 in
06:22 66.3 °F 66.0 °F 29.91 in Calm     99% 0.00 in
06:27 66.3 °F 66.0 °F 29.91 in Calm     99% 0.00 in
06:32 66.3 °F 66.0 °F 29.91 in Calm     99% 0.00 in
06:37 66.3 °F 66.0 °F 29.91 in Calm     99% 0.00 in
06:42 66.4 °F 66.1 °F 29.92 in Calm     99% 0.00 in
06:52 66.6 °F 66.3 °F 29.91 in Calm     99% 0.00 in
06:57 66.8 °F 66.5 °F 29.92 in Calm     99% 0.00 in
07:02 67.0 °F 66.7 °F 29.92 in Calm     99% 0.00 in
07:07 67.1 °F 66.8 °F 29.92 in Calm     99% 0.00 in
07:12 67.4 °F 67.1 °F 29.92 in Calm     99% 0.00 in
07:17 67.7 °F 67.4 °F 29.92 in Calm     99% 0.00 in
07:22 68.3 °F 68.3 °F 29.92 in NE 1.2 mph   100% 0.00 in
07:27 68.6 °F 68.3 °F 29.93 in Calm     99% 0.00 in
07:37 69.2 °F 68.9 °F 29.93 in Calm     99% 0.00 in
07:42 69.4 °F 69.4 °F 29.93 in Calm     100% 0.00 in
07:47 69.6 °F 69.6 °F 29.93 in Calm     100% 0.00 in
07:52 69.9 °F 69.6 °F 29.93 in NE 1.2 mph 1.2 mph 99% 0.00 in
07:57 70.3 °F 70.3 °F 29.94 in NE 1.2 mph 1.2 mph 100% 0.00 in
08:02 70.7 °F 70.7 °F 29.94 in NE 1.2 mph 1.2 mph 100% 0.00 in
08:07 71.1 °F 70.8 °F 29.94 in SE 2.3 mph 2.3 mph 99% 0.00 in
08:12 71.6 °F 71.3 °F 29.94 in SE 2.3 mph 2.3 mph 99% 0.00 in
08:17 72.1 °F 71.5 °F 29.94 in SE 2.0 mph 2.0 mph 98% 0.00 in
08:22 72.8 °F 71.9 °F 29.94 in Calm     97% 0.00 in
08:27 73.9 °F 72.7 °F 29.94 in SE 3.5 mph 3.5 mph 96% 0.00 in
08:37 75.7 °F 73.2 °F 29.94 in SE 1.2 mph   92% 0.00 in
08:42 76.4 °F 73.2 °F 29.94 in SE 1.2 mph   90% 0.00 in
08:47 77.1 °F 73.6 °F 29.94 in Calm   0.2 mph 89% 0.00 in
08:52 77.8 °F 74.3 °F 29.94 in SE 1.2 mph 1.2 mph 89% 0.00 in
08:57 78.3 °F 74.1 °F 29.94 in Calm     87% 0.00 in
09:02 79.0 °F 74.8 °F 29.94 in SE 1.2 mph   87% 0.00 in
09:12 80.4 °F 75.1 °F 29.94 in SE 1.0 mph 1.0 mph 84% 0.00 in
09:17 80.6 °F 75.7 °F 29.94 in SE 1.2 mph 1.2 mph 85% 0.00 in
09:22 81.1 °F 75.8 °F 29.94 in SE 2.3 mph 2.3 mph 84% 0.00 in
09:27 81.1 °F 75.8 °F 29.94 in SE 2.3 mph 2.3 mph 84% 0.00 in
09:32 81.4 °F 75.7 °F 29.94 in SE 2.3 mph 2.3 mph 83% 0.00 in
09:37 81.9 °F 75.5 °F 29.94 in SSE 5.8 mph 5.8 mph 81% 0.00 in
09:42 81.9 °F 75.5 °F 29.94 in South 4.6 mph 4.6 mph 81% 0.00 in
09:47 81.8 °F 75.4 °F 29.94 in South 5.8 mph 5.8 mph 81% 0.00 in
09:52 81.6 °F 75.6 °F 29.94 in SSW 2.3 mph 2.7 mph 82% 0.00 in
09:57 81.6 °F 75.6 °F 29.94 in SSW 3.5 mph 3.5 mph 82% 0.00 in
10:02 82.0 °F 76.0 °F 29.94 in SSE 4.6 mph 4.6 mph 82% 0.00 in
10:07 82.3 °F 76.3 °F 29.94 in SSE 4.6 mph 4.6 mph 82% 0.00 in
10:12 82.3 °F 75.9 °F 29.94 in SSE 6.9 mph 6.9 mph 81% 0.00 in
10:17 82.4 °F 76.3 °F 29.94 in South 4.6 mph 4.6 mph 82% 0.00 in
10:22 82.0 °F 76.0 °F 29.94 in South 4.6 mph 4.6 mph 82% 0.00 in
10:27 82.5 °F 76.4 °F 29.94 in SE 3.5 mph 3.5 mph 82% 0.00 in
10:32 83.1 °F 77.4 °F 29.94 in South 2.3 mph 2.3 mph 83% 0.00 in
10:37 83.2 °F 76.4 °F 29.94 in South 1.2 mph   80% 0.00 in
10:42 83.6 °F 76.8 °F 29.94 in SSE 4.6 mph 4.6 mph 80% 0.00 in
10:47 84.0 °F 77.2 °F 29.94 in SE 5.8 mph 5.8 mph 80% 0.00 in
10:52 84.4 °F 76.8 °F 29.94 in SSE 4.0 mph 4.0 mph 78% 0.00 in
10:57 84.7 °F 76.7 °F 29.93 in SSW 5.8 mph 5.8 mph 77% 0.00 in
11:02 84.8 °F 76.8 °F 29.94 in SE 1.2 mph 1.2 mph 77% 0.00 in
11:07 85.4 °F 77.0 °F 29.94 in SSE 4.6 mph 4.6 mph 76% 0.00 in
11:12 85.6 °F 76.4 °F 29.93 in South 3.5 mph 3.5 mph 74% 0.00 in
11:17 85.6 °F 76.4 °F 29.93 in South 5.8 mph 5.8 mph 74% 0.00 in
11:22 85.6 °F 76.4 °F 29.94 in SW 6.9 mph 6.9 mph 74% 0.00 in
11:27 85.7 °F 76.0 °F 29.93 in SSW 3.5 mph 3.5 mph 73% 0.00 in
11:32 85.7 °F 76.0 °F 29.93 in South 4.6 mph 4.6 mph 73% 0.00 in
11:37 86.1 °F 76.8 °F 29.93 in SSE 3.5 mph 3.5 mph 74% 0.00 in
11:42 86.3 °F 76.6 °F 29.93 in South 5.8 mph 5.8 mph 73% 0.00 in
11:47 86.3 °F 76.6 °F 29.93 in SSW 2.3 mph 2.3 mph 73% 0.00 in
Mechanicsburg,PA USA
Compliments of Weather Underground